Parksley, VA

2:38 PM EDT on October 21, 2014 (GMT -0400)
Salisbury-Ocean City Wicomico Regional | Change Station
CLOSE
Current Station
Airport
Location: Salisbury,
Elevation: 52 ft
Nearby Weather Stations

Elev 52 ft 38.34 °N, 75.51 °W | Updated 44 minutes ago

Clear
Clear
73 °F
Feels Like 73 °F
N
6
Wind Variable Wind from West

Today
High -- | Low -- °F
--% Chance of Precip.
Yesterday
High -- | Low -- °F
Precip. -- in
7:16 AM 6:17 PM
Waning Crescent, 5% visible
Pressure 29.82 in
Visibility 10.0 miles
Clouds Clear
Dew Point 50 °F
Humidity 44%
Rainfall 0.00 in
Snow Depth Not available.
UV 5 out of 12
Pollen 1.70 out of 12
Air Quality Not available.
Flu Activity Local Activity
METAR KSBY 211754Z 26005KT 10SM CLR 23/10 A2981 RMK AO2 SLP097 60000 T02280100 10233 20150 58019

More Conditions Fewer Conditions

Pressure 29.82 in
Visibility 10.0 miles
Clouds Clear
Dew Point 50 °F
Humidity 44%
Rainfall 0.00 in
Snow Depth Not available.
UV 5 out of 12
Pollen 1.70 out of 12
Air Quality Not available.
Flu Activity Local Activity
METAR KSBY 211754Z 26005KT 10SM CLR 23/10 A2981 RMK AO2 SLP097 60000 T02280100 10233 20150 58019

More Conditions Fewer Conditions

10-Day Weather Forecast

Almanac

Astronomy

Oct. 21, 2014 Rise Set
Actual Time 7:16 AM EDT 6:17 PM EDT
Civil Twilight 6:50 AM EDT 6:43 PM EDT
Nautical Twilight 6:19 AM EDT 7:14 PM EDT
Astronomical Twilight 5:49 AM EDT 7:44 PM EDT
Moon 5:01 AM EDT 5:08 PM EDT
Length of Visible Light 11h 53m
Length of Day
11h 00m
Tomorrow will be 2m 17s shorter.
Waning Crescent, 5% of the Moon is Illuminated
Today
Waning Crescent
Oct 23
New
Oct 30
First Quarter
Nov 6
Full
Nov 14
Last Quarter

Today's Extremes

State Highs State Lows

Community

WunderPhotos

Upload Photos

1,763,738 photos uploaded!

Nearby

Snow Depth

Station Depth Elevation
No new snow has been reported.

Earthquake Activity

City Distance Mag. Time & Date
No recent earthquake activity has been reported nearby.
Minimum magnitude displayed is 2.5.

Coastal Water Temperatures

Place Temperature
Wachapreague, VA 64.0 °F
Lewisetta, VA 64.9 °F
Bishops Head, MD 61.0 °F

Nearby Weather Stations